Time;durP1;ratioP1;P1;durP2;ratioP2;P2;SDS_P1;SDS_P2;PMS_P1;PMS_P2;Temp;Humidity;BMP_temperature;BMP_pressure;BME280_temperature;BME280_humidity;BME280_pressure;Samples;Min_cycle;Max_cycle;Signal;HPM_P1;HPM_P2
2023/02/21 02:15:21;;;;;;;216.45;56.40;;;8.50;99.90;;;;;;5037194;28;20021;-47
2023/02/21 02:17:46;;;;;;;228.25;62.33;;;8.60;99.90;;;;;;5047445;28;20507;-48
2023/02/21 02:20:37;;;;;;;225.60;61.67;;;8.60;99.90;;;;;;5049519;28;20045;-49
2023/02/21 02:23:40;;;;;;;177.32;56.05;;;8.60;99.90;;;;;;5046063;28;20388;-46
2023/02/21 02:26:43;;;;;;;235.63;64.78;;;8.60;99.90;;;;;;5063457;28;20029;-49
2023/02/21 02:29:36;;;;;;;194.63;58.50;;;8.50;99.90;;;;;;5048781;28;20237;-48
2023/02/21 02:32:45;;;;;;;165.27;53.28;;;8.60;99.90;;;;;;5047063;28;20021;-46
2023/02/21 02:35:34;;;;;;;195.30;57.00;;;8.50;99.90;;;;;;5048740;28;20013;-47
2023/02/21 02:38:17;;;;;;;228.18;60.83;;;8.50;99.90;;;;;;5048026;28;20480;-47
2023/02/21 02:40:52;;;;;;;195.85;56.03;;;8.50;99.90;;;;;;5046574;28;20021;-48
2023/02/21 02:43:29;;;;;;;207.07;59.47;;;8.50;99.90;;;;;;5046149;28;20376;-47
2023/02/21 02:46:09;;;;;;;233.52;66.72;;;8.50;99.90;;;;;;5049718;28;20017;-48
2023/02/21 02:49:16;;;;;;;225.20;63.95;;;8.50;99.90;;;;;;5048315;28;20017;-47
2023/02/21 02:51:42;;;;;;;230.18;62.33;;;8.50;99.90;;;;;;5003599;28;20029;-48
2023/02/21 02:54:08;;;;;;;250.70;68.15;;;8.50;99.90;;;;;;5041242;28;20029;-47
2023/02/21 02:56:35;;;;;;;227.70;61.38;;;8.50;99.90;;;;;;5064398;28;20468;-49
2023/02/21 02:59:11;;;;;;;271.60;70.60;;;8.50;99.90;;;;;;5049046;28;20025;-47
2023/02/21 03:01:50;;;;;;;246.80;64.57;;;8.50;99.90;;;;;;5047903;28;20023;-47
2023/02/21 03:04:32;;;;;;;221.57;63.83;;;8.50;99.90;;;;;;5048673;28;20025;-49
2023/02/21 03:07:17;;;;;;;203.98;58.00;;;8.50;99.90;;;;;;5046189;28;20024;-47
2023/02/21 03:09:48;;;;;;;186.85;54.97;;;8.50;99.90;;;;;;5046825;28;20024;-50
2023/02/21 03:12:45;;;;;;;236.75;60.70;;;8.60;99.90;;;;;;5045856;28;20021;-47
2023/02/21 03:15:31;;;;;;;274.13;66.20;;;8.50;99.90;;;;;;5047240;28;20025;-48
2023/02/21 03:18:06;;;;;;;240.27;63.97;;;8.50;99.90;;;;;;5048568;28;20408;-51
2023/02/21 03:20:32;;;;;;;215.40;60.53;;;8.60;99.90;;;;;;5048405;28;20492;-49
2023/02/21 03:23:01;;;;;;;200.45;58.88;;;8.50;99.90;;;;;;5045411;28;20029;-48
2023/02/21 03:25:30;;;;;;;195.35;57.92;;;8.50;99.90;;;;;;5048034;28;20514;-48
2023/02/21 03:27:56;;;;;;;208.75;57.92;;;8.50;99.90;;;;;;5048184;28;20548;-48
2023/02/21 03:30:21;;;;;;;243.80;61.50;;;8.50;99.90;;;;;;5045801;28;20025;-47
2023/02/21 03:32:52;;;;;;;217.57;59.50;;;8.50;99.90;;;;;;5063179;28;20427;-47
2023/02/21 03:35:19;;;;;;;247.10;64.78;;;8.50;99.90;;;;;;5041353;28;20021;-46
2023/02/21 03:37:47;;;;;;;197.52;58.05;;;8.50;99.90;;;;;;5046952;28;20020;-46
2023/02/21 03:40:22;;;;;;;205.48;58.30;;;8.50;99.90;;;;;;5047354;28;20272;-47
2023/02/21 03:42:49;;;;;;;203.88;60.28;;;8.50;99.90;;;;;;5046900;28;20059;-47
2023/02/21 03:45:14;;;;;;;210.35;61.13;;;8.50;99.90;;;;;;5047807;28;20025;-48
2023/02/21 03:47:40;;;;;;;192.15;55.28;;;8.50;99.90;;;;;;5048701;28;20258;-47
2023/02/21 03:50:06;;;;;;;194.52;58.15;;;8.50;99.90;;;;;;5048146;28;20511;-47
2023/02/21 03:52:32;;;;;;;212.02;60.67;;;8.50;99.90;;;;;;5047607;28;20041;-47
2023/02/21 03:54:57;;;;;;;182.93;56.70;;;8.60;99.90;;;;;;5048387;28;20032;-47
2023/02/21 03:57:23;;;;;;;188.48;55.10;;;8.50;99.90;;;;;;5047328;28;20096;-47
2023/02/21 03:59:48;;;;;;;215.07;59.22;;;8.50;99.90;;;;;;5047718;28;20033;-48
2023/02/21 04:02:14;;;;;;;209.57;58.40;;;8.60;99.90;;;;;;5047339;28;20028;-47
2023/02/21 04:04:40;;;;;;;246.50;64.13;;;8.50;99.90;;;;;;5063049;28;20021;-48
2023/02/21 04:07:05;;;;;;;211.82;57.72;;;8.50;99.90;;;;;;5046593;28;20108;-48
2023/02/21 04:09:31;;;;;;;243.35;61.50;;;8.50;99.90;;;;;;5047593;28;20037;-48
2023/02/21 04:11:57;;;;;;;211.50;61.50;;;8.50;99.90;;;;;;5061781;28;20025;-49
2023/02/21 04:14:22;;;;;;;194.15;58.75;;;8.50;99.90;;;;;;5047166;28;20044;-50
2023/02/21 04:16:48;;;;;;;184.40;56.78;;;8.60;99.90;;;;;;5062649;28;20502;-49
2023/02/21 04:19:13;;;;;;;220.07;61.83;;;8.60;99.90;;;;;;5047426;28;20029;-50
2023/02/21 04:21:39;;;;;;;242.55;64.38;;;8.60;99.90;;;;;;5045965;28;20032;-48
2023/02/21 04:24:04;;;;;;;190.13;60.00;;;8.50;99.90;;;;;;5047193;28;20021;-49
2023/02/21 04:26:30;;;;;;;214.05;60.85;;;8.60;99.90;;;;;;5047662;28;20048;-48
2023/02/21 04:28:55;;;;;;;179.35;57.10;;;8.60;99.90;;;;;;5047334;28;20025;-50
2023/02/21 04:31:21;;;;;;;192.27;57.97;;;8.60;99.90;;;;;;5062633;28;20071;-45
2023/02/21 04:33:47;;;;;;;201.52;59.20;;;8.60;99.90;;;;;;5047642;28;20077;-42
2023/02/21 04:36:13;;;;;;;174.50;55.33;;;8.60;99.90;;;;;;5046199;28;20114;-43
2023/02/21 04:38:39;;;;;;;173.15;56.72;;;8.60;99.90;;;;;;5044594;28;20032;-42
2023/02/21 04:41:05;;;;;;;199.63;60.08;;;8.60;99.90;;;;;;5046676;28;20108;-42
2023/02/21 04:43:31;;;;;;;219.10;65.50;;;8.60;99.90;;;;;;5045777;28;20057;-42
2023/02/21 04:45:57;;;;;;;209.52;61.78;;;8.60;99.90;;;;;;5046972;28;20053;-43
2023/02/21 04:48:22;;;;;;;238.50;63.10;;;8.60;99.90;;;;;;5045229;28;20461;-43
2023/02/21 04:50:48;;;;;;;203.02;57.53;;;8.60;99.90;;;;;;5046286;28;20025;-43
2023/02/21 04:53:13;;;;;;;188.15;56.13;;;8.60;99.90;;;;;;5045890;28;20397;-41
2023/02/21 04:55:39;;;;;;;221.05;62.10;;;8.60;99.90;;;;;;5046253;28;20013;-41
2023/02/21 04:58:05;;;;;;;217.88;62.75;;;8.60;99.90;;;;;;5046967;28;20024;-43
2023/02/21 05:00:30;;;;;;;186.93;57.28;;;8.50;99.90;;;;;;5049762;28;20025;-44
2023/02/21 05:02:56;;;;;;;232.48;62.08;;;8.50;99.90;;;;;;5046076;28;20098;-45
2023/02/21 05:05:21;;;;;;;196.13;59.13;;;8.60;99.90;;;;;;5062415;28;20025;-46
2023/02/21 05:07:47;;;;;;;218.85;59.30;;;8.60;99.90;;;;;;5048938;28;20417;-43
2023/02/21 05:10:14;;;;;;;195.85;56.92;;;8.60;99.90;;;;;;5048650;28;20025;-42
2023/02/21 05:12:40;;;;;;;197.43;56.38;;;8.60;99.90;;;;;;5043983;28;20071;-41
2023/02/21 05:15:07;;;;;;;214.38;59.25;;;8.60;99.90;;;;;;5047534;28;20554;-42
2023/02/21 05:17:32;;;;;;;204.60;59.03;;;8.60;99.90;;;;;;5050737;28;20108;-42
2023/02/21 05:19:58;;;;;;;187.20;58.08;;;8.60;99.90;;;;;;5050234;28;20119;-42
2023/02/21 05:22:23;;;;;;;190.07;59.50;;;8.60;99.90;;;;;;5050375;28;20025;-41
2023/02/21 05:24:49;;;;;;;195.80;56.45;;;8.60;99.90;;;;;;5065997;28;20025;-42
2023/02/21 05:27:17;;;;;;;248.20;64.93;;;8.60;99.90;;;;;;5050725;28;20028;-41
2023/02/21 05:29:48;;;;;;;218.80;63.97;;;8.60;99.90;;;;;;5065741;28;20025;-42
2023/02/21 05:32:14;;;;;;;;;;;8.60;99.90;;;;;;5051402;28;20025;-42
2023/02/21 05:34:43;;;;;;;240.88;65.90;;;8.60;99.90;;;;;;5052006;28;20444;-42
2023/02/21 05:37:12;;;;;;;249.25;68.03;;;8.50;99.90;;;;;;5051956;28;20107;-40
2023/02/21 05:39:38;;;;;;;240.10;64.03;;;8.60;99.90;;;;;;5051992;28;20025;-41
2023/02/21 05:42:04;;;;;;;223.93;63.30;;;8.50;99.90;;;;;;5051531;28;20056;-40
2023/02/21 05:44:29;;;;;;;224.88;63.58;;;8.60;99.90;;;;;;5051792;28;20037;-40
2023/02/21 05:46:55;;;;;;;241.27;65.13;;;8.60;99.90;;;;;;5051363;28;20029;-41
2023/02/21 05:49:20;;;;;;;234.75;66.35;;;8.60;99.90;;;;;;5051206;28;20028;-41
2023/02/21 05:51:46;;;;;;;250.60;65.18;;;8.60;99.90;;;;;;5048841;28;20032;-41
2023/02/21 05:54:16;;;;;;;207.73;60.08;;;8.60;99.90;;;;;;5051586;28;20017;-43
2023/02/21 05:56:43;;;;;;;223.38;64.18;;;8.60;99.90;;;;;;5050481;28;20017;-43
2023/02/21 05:59:10;;;;;;;280.08;69.70;;;8.60;99.90;;;;;;5051051;28;20029;-42
2023/02/21 06:01:35;;;;;;;245.43;66.15;;;8.60;99.90;;;;;;5070822;28;20399;-43
2023/02/21 06:04:01;;;;;;;275.35;70.40;;;8.60;99.90;;;;;;5069109;28;20036;-42
2023/02/21 06:06:27;;;;;;;256.95;66.55;;;8.60;99.90;;;;;;5071345;28;20093;-42
2023/02/21 06:08:52;;;;;;;260.73;66.05;;;8.60;99.90;;;;;;5070968;28;20024;-43
2023/02/21 06:11:25;;;;;;;220.52;61.88;;;8.60;99.90;;;;;;5062133;28;20021;-42
2023/02/21 06:13:52;;;;;;;231.75;63.25;;;8.60;99.90;;;;;;5065687;28;20016;-42
2023/02/21 06:16:17;;;;;;;253.38;66.53;;;8.60;99.90;;;;;;5050944;28;20032;-42
2023/02/21 06:18:43;;;;;;;212.57;59.90;;;8.60;99.90;;;;;;5051059;28;20556;-42
2023/02/21 06:21:08;;;;;;;170.85;54.35;;;8.60;99.90;;;;;;5049691;28;20033;-42
2023/02/21 06:23:34;;;;;;;200.75;58.85;;;8.60;99.90;;;;;;5049220;28;20037;-42
2023/02/21 06:25:59;;;;;;;248.95;63.70;;;8.60;99.90;;;;;;5048601;28;20031;-42
2023/02/21 06:28:29;;;;;;;178.65;55.45;;;8.60;99.90;;;;;;5049333;28;20528;-48
2023/02/21 06:30:55;;;;;;;199.43;57.40;;;8.60;99.90;;;;;;5050651;28;20031;-47
2023/02/21 06:33:21;;;;;;;219.80;59.67;;;8.60;99.90;;;;;;5049814;28;20442;-48
2023/02/21 06:35:46;;;;;;;219.00;62.95;;;8.60;99.90;;;;;;5050129;28;20021;-47
2023/02/21 06:38:12;;;;;;;247.88;68.25;;;8.60;99.90;;;;;;5050607;28;20029;-47
2023/02/21 06:40:37;;;;;;;221.40;61.30;;;8.60;99.90;;;;;;5049951;28;20035;-47
2023/02/21 06:43:03;;;;;;;198.93;58.83;;;8.60;99.90;;;;;;5049459;28;20035;-47
2023/02/21 06:45:28;;;;;;;243.57;67.00;;;8.60;99.90;;;;;;5048928;28;20048;-47
2023/02/21 06:47:54;;;;;;;226.95;63.08;;;8.60;99.90;;;;;;5049520;28;20024;-47
2023/02/21 06:50:20;;;;;;;269.60;67.28;;;8.60;99.90;;;;;;5064506;28;20029;-47
2023/02/21 06:52:45;;;;;;;230.57;65.57;;;8.60;99.90;;;;;;5050081;28;20025;-48
2023/02/21 06:55:11;;;;;;;226.93;62.22;;;8.60;99.90;;;;;;5050119;28;20631;-47
2023/02/21 06:57:36;;;;;;;196.57;57.60;;;8.60;99.90;;;;;;5049847;28;20472;-47
2023/02/21 07:00:03;;;;;;;233.02;62.90;;;8.60;99.90;;;;;;5048973;28;20029;-47
2023/02/21 07:02:29;;;;;;;249.02;65.60;;;8.60;99.90;;;;;;5046017;28;20029;-47
2023/02/21 07:04:55;;;;;;;217.27;64.32;;;8.70;99.90;;;;;;5048928;28;20036;-47
2023/02/21 07:07:20;;;;;;;262.38;68.38;;;8.60;99.90;;;;;;5049481;28;20103;-47
2023/02/21 07:09:45;;;;;;;246.65;69.20;;;8.70;99.90;;;;;;5050966;28;20063;-48
2023/02/21 07:12:11;;;;;;;198.93;59.20;;;8.60;99.90;;;;;;5050585;28;20031;-43
2023/02/21 07:14:37;;;;;;;282.30;72.18;;;8.60;99.90;;;;;;5051080;28;20594;-43
2023/02/21 07:17:02;;;;;;;270.10;69.32;;;8.70;99.90;;;;;;5050888;28;20029;-42
2023/02/21 07:19:28;;;;;;;269.58;73.07;;;8.70;99.90;;;;;;5050790;28;20139;-42
2023/02/21 07:21:53;;;;;;;254.40;66.97;;;8.60;99.90;;;;;;5048724;28;20032;-42
2023/02/21 07:24:19;;;;;;;211.95;63.42;;;8.60;99.90;;;;;;5048941;28;20017;-41
2023/02/21 07:26:44;;;;;;;278.77;73.13;;;8.70;99.90;;;;;;5048152;28;20027;-42
2023/02/21 07:29:10;;;;;;;270.33;69.95;;;8.70;99.90;;;;;;5049243;28;20110;-42
2023/02/21 07:31:35;;;;;;;281.30;74.50;;;8.70;99.90;;;;;;5049549;28;20427;-42
2023/02/21 07:34:01;;;;;;;248.10;66.68;;;8.70;99.90;;;;;;5048322;28;20028;-41
2023/02/21 07:36:27;;;;;;;232.05;67.55;;;8.70;99.90;;;;;;5049237;28;20215;-42
2023/02/21 07:38:52;;;;;;;234.80;65.32;;;8.70;99.90;;;;;;5049353;28;20057;-47
2023/02/21 07:41:18;;;;;;;245.10;68.65;;;8.70;99.90;;;;;;5048544;28;20025;-47
2023/02/21 07:43:43;;;;;;;245.23;68.38;;;8.80;99.90;;;;;;5048239;28;20524;-47
2023/02/21 07:46:15;;;;;;;274.75;67.03;;;8.80;99.90;;;;;;5049139;28;20090;-47
2023/02/21 07:48:40;;;;;;;293.63;73.22;;;8.80;99.90;;;;;;5048988;28;20501;-50
2023/02/21 07:51:07;;;;;;;222.73;62.80;;;8.70;99.90;;;;;;5047720;28;20319;-47
2023/02/21 07:53:33;;;;;;;243.18;64.93;;;8.70;99.90;;;;;;5048205;28;20021;-50
2023/02/21 07:55:58;;;;;;;233.57;62.78;;;8.70;99.90;;;;;;5048725;28;20557;-47
2023/02/21 07:58:24;;;;;;;240.10;63.00;;;8.80;99.90;;;;;;5047301;28;20044;-47
2023/02/21 08:00:51;;;;;;;263.20;66.28;;;8.70;99.90;;;;;;5048708;28;20027;-42
2023/02/21 08:03:17;;;;;;;194.38;59.03;;;8.70;99.90;;;;;;5063731;28;20053;-47
2023/02/21 08:05:44;;;;;;;256.45;66.40;;;8.70;99.90;;;;;;5049225;28;20025;-48
2023/02/21 08:08:10;;;;;;;211.45;62.40;;;8.70;99.90;;;;;;5064436;28;20024;-47
2023/02/21 08:10:36;;;;;;;242.93;63.75;;;8.70;99.90;;;;;;5048596;28;20054;-48
2023/02/21 08:13:01;;;;;;;168.60;53.10;;;8.70;99.90;;;;;;5047987;28;20017;-50
2023/02/21 08:15:28;;;;;;;179.82;57.00;;;8.80;99.90;;;;;;5048920;28;20025;-50
2023/02/21 08:17:53;;;;;;;209.32;62.17;;;8.80;99.90;;;;;;5049125;28;20013;-47
2023/02/21 08:20:19;;;;;;;202.98;59.38;;;8.80;99.90;;;;;;5048046;28;20369;-48
2023/02/21 08:22:45;;;;;;;227.50;64.60;;;8.80;99.90;;;;;;5047943;28;20024;-47
2023/02/21 08:25:11;;;;;;;238.27;64.40;;;8.80;99.90;;;;;;5048586;28;20029;-47
2023/02/21 08:27:41;;;;;;;222.10;62.08;;;8.80;99.90;;;;;;5048714;28;20324;-47
2023/02/21 08:30:09;;;;;;;240.20;65.95;;;8.90;99.90;;;;;;5047481;28;20376;-47
2023/02/21 08:32:35;;;;;;;228.60;63.90;;;8.90;99.90;;;;;;5048069;28;20120;-47
2023/02/21 08:35:02;;;;;;;225.13;64.68;;;8.80;99.90;;;;;;5048873;28;20104;-47
2023/02/21 08:37:31;;;;;;;236.02;65.50;;;8.80;99.90;;;;;;5047472;28;20562;-47
2023/02/21 08:39:57;;;;;;;212.45;63.83;;;8.90;99.90;;;;;;5047613;28;20531;-47
2023/02/21 08:42:23;;;;;;;216.50;67.22;;;8.90;99.90;;;;;;5047613;28;20028;-47
2023/02/21 08:44:49;;;;;;;210.00;63.95;;;8.90;99.90;;;;;;5047930;28;20325;-49
2023/02/21 08:47:17;;;;;;;213.15;65.72;;;8.90;99.90;;;;;;5046958;28;20480;-50
2023/02/21 08:49:46;;;;;;;204.25;62.63;;;8.90;99.90;;;;;;5047797;28;20613;-47
2023/02/21 08:52:12;;;;;;;221.15;63.50;;;8.90;99.90;;;;;;5052138;28;20029;-48
2023/02/21 08:54:37;;;;;;;210.32;62.20;;;8.90;99.90;;;;;;5053024;28;20017;-47
2023/02/21 08:57:03;;;;;;;224.57;67.63;;;8.90;99.90;;;;;;5052317;28;20021;-46
2023/02/21 08:59:32;;;;;;;193.35;61.78;;;8.90;99.90;;;;;;5052403;28;20068;-47
2023/02/21 09:01:58;;;;;;;195.40;60.88;;;8.90;99.90;;;;;;5052198;28;20108;-47
2023/02/21 09:04:25;;;;;;;197.70;60.90;;;8.90;99.90;;;;;;5051405;28;20055;-47
2023/02/21 09:06:51;;;;;;;190.48;62.25;;;8.90;99.90;;;;;;5052223;28;20411;-50
2023/02/21 09:09:16;;;;;;;227.52;66.93;;;8.90;99.90;;;;;;5052216;28;20021;-49
2023/02/21 09:11:45;;;;;;;213.55;63.70;;;8.90;99.90;;;;;;5052077;28;20021;-49
2023/02/21 09:14:11;;;;;;;218.63;64.70;;;8.90;99.90;;;;;;5050951;28;20032;-47
2023/02/21 09:16:37;;;;;;;216.38;64.47;;;8.90;99.90;;;;;;5050881;28;20029;-47
2023/02/21 09:19:05;;;;;;;174.52;58.90;;;8.90;99.90;;;;;;5052068;28;20072;-47
2023/02/21 09:21:31;;;;;;;199.32;62.22;;;8.90;99.90;;;;;;5051094;28;20053;-49
2023/02/21 09:23:58;;;;;;;205.20;64.55;;;8.90;99.90;;;;;;5067189;28;20554;-48
2023/02/21 09:26:24;;;;;;;202.30;63.80;;;9.00;99.90;;;;;;5067753;28;20479;-46
2023/02/21 09:28:51;;;;;;;192.45;60.25;;;8.90;99.90;;;;;;5052140;28;20095;-47
2023/02/21 09:31:17;;;;;;;189.57;60.20;;;9.00;99.90;;;;;;5051994;28;20032;-47
2023/02/21 09:33:44;;;;;;;172.40;59.50;;;9.00;99.90;;;;;;5051535;28;20114;-47
2023/02/21 09:36:10;;;;;;;161.60;54.40;;;9.00;99.90;;;;;;5050742;28;20076;-47
2023/02/21 09:38:36;;;;;;;183.55;58.35;;;9.00;99.90;;;;;;5050120;28;20476;-47
2023/02/21 09:41:05;;;;;;;190.02;60.15;;;9.10;99.90;;;;;;5067007;28;20025;-48
2023/02/21 09:43:32;;;;;;;150.02;54.65;;;9.00;99.90;;;;;;5051238;28;20029;-50
2023/02/21 09:46:02;;;;;;;149.68;54.97;;;9.10;99.90;;;;;;5051606;28;20021;-47
2023/02/21 09:48:29;;;;;;;134.52;52.00;;;9.10;99.90;;;;;;5051427;28;20049;-48
2023/02/21 09:51:02;;;;;;;146.68;54.55;;;9.10;99.90;;;;;;5049932;28;20056;-47
2023/02/21 09:53:35;;;;;;;158.18;54.78;;;9.10;99.90;;;;;;5058186;28;20028;-47
2023/02/21 09:56:07;;;;;;;135.70;51.83;;;9.20;99.90;;;;;;5051622;28;20021;-48
2023/02/21 09:58:34;;;;;;;130.25;51.63;;;9.20;99.90;;;;;;5051234;28;20021;-49
2023/02/21 10:01:10;;;;;;;102.28;45.97;;;9.30;99.90;;;;;;5066408;28;20032;-48
2023/02/21 10:03:53;;;;;;;103.97;46.53;;;9.30;99.90;;;;;;5050616;28;20017;-47
2023/02/21 10:06:34;;;;;;;100.85;44.63;;;9.40;99.90;;;;;;5049864;28;20440;-49
2023/02/21 10:09:07;;;;;;;;;;;9.40;99.90;;;;;;5052535;28;20430;-48
2023/02/21 10:11:35;;;;;;;93.38;44.22;;;9.50;99.90;;;;;;5051847;28;20577;-47
2023/02/21 10:14:20;;;;;;;85.40;41.00;;;9.60;99.90;;;;;;5051190;28;20381;-47
2023/02/21 10:17:10;;;;;;;90.07;40.53;;;9.60;99.90;;;;;;5051108;28;20091;-47
2023/02/21 10:19:41;;;;;;;81.40;39.50;;;9.70;99.90;;;;;;5065177;28;20681;-47
2023/02/21 10:22:33;;;;;;;74.50;36.45;;;9.70;99.90;;;;;;5050237;28;20024;-51
2023/02/21 10:25:01;;;;;;;76.00;38.50;;;9.70;99.90;;;;;;5050814;28;20033;-47
2023/02/21 10:27:31;;;;;;;74.38;37.58;;;9.80;99.90;;;;;;5051197;28;20472;-48
2023/02/21 10:30:03;;;;;;;;;;;9.80;99.90;;;;;;5051682;28;20029;-47
2023/02/21 10:32:29;;;;;;;67.75;34.13;;;9.80;99.90;;;;;;5048935;28;19908;-48
2023/02/21 10:34:57;;;;;;;69.15;34.47;;;9.80;99.90;;;;;;5050358;28;20032;-47
2023/02/21 10:37:43;;;;;;;71.18;35.70;;;9.70;99.90;;;;;;5050645;28;20017;-47
2023/02/21 10:40:41;;;;;;;67.47;34.63;;;9.70;99.90;;;;;;5049846;28;20021;-47
2023/02/21 10:43:34;;;;;;;69.47;34.95;;;9.80;99.90;;;;;;5050326;28;20417;-47
2023/02/21 10:46:26;;;;;;;68.20;34.63;;;9.80;99.90;;;;;;5048163;28;20100;-48
2023/02/21 10:48:58;;;;;;;65.82;35.08;;;9.80;99.90;;;;;;5050299;28;20025;-49
2023/02/21 10:51:33;;;;;;;59.72;33.80;;;9.80;99.90;;;;;;5064355;28;20108;-48
2023/02/21 10:54:22;;;;;;;63.95;32.47;;;9.80;99.90;;;;;;5049872;28;20029;-50
2023/02/21 10:56:51;;;;;;;62.45;34.55;;;9.80;99.90;;;;;;5049262;28;20033;-48
2023/02/21 10:59:29;;;;;;;63.80;31.65;;;9.80;99.90;;;;;;5049890;28;20032;-50
2023/02/21 11:01:56;;;;;;;64.57;33.53;;;9.80;99.90;;;;;;5048712;28;20041;-50
2023/02/21 11:04:29;;;;;;;58.85;31.88;;;9.80;99.90;;;;;;5049914;28;20029;-48
2023/02/21 11:07:06;;;;;;;67.10;32.92;;;9.80;99.90;;;;;;5050419;28;20088;-48
2023/02/21 11:09:43;;;;;;;65.35;32.65;;;9.80;99.90;;;;;;5050242;28;20094;-41
2023/02/21 11:12:14;;;;;;;63.63;33.17;;;9.80;99.90;;;;;;5049425;28;20025;-41
2023/02/21 11:14:41;;;;;;;67.65;33.58;;;9.70;99.90;;;;;;5049250;28;20483;-42
2023/02/21 11:17:24;;;;;;;65.00;33.60;;;9.70;99.90;;;;;;5050243;28;20472;-42
2023/02/21 11:19:54;;;;;;;64.20;34.75;;;9.70;99.90;;;;;;5049979;28;20507;-41
2023/02/21 11:22:38;;;;;;;63.35;33.67;;;9.70;99.90;;;;;;5049764;28;20036;-40
2023/02/21 11:25:30;;;;;;;61.85;32.30;;;9.80;99.90;;;;;;5049743;28;20033;-40
2023/02/21 11:28:09;;;;;;;61.78;31.23;;;9.80;99.90;;;;;;5049669;28;20054;-41
2023/02/21 11:30:37;;;;;;;58.13;30.75;;;9.80;99.90;;;;;;5049268;28;20236;-41
2023/02/21 11:33:04;;;;;;;61.50;32.03;;;9.80;99.90;;;;;;5064372;28;20031;-42
2023/02/21 11:35:44;;;;;;;57.03;29.92;;;9.80;99.90;;;;;;5049703;28;20527;-42
2023/02/21 11:38:56;;;;;;;62.05;29.38;;;9.80;99.90;;;;;;5049876;28;20550;-42
2023/02/21 11:41:33;;;;;;;56.30;29.00;;;9.80;99.90;;;;;;5033391;28;20063;-42
2023/02/21 11:43:59;;;;;;;56.88;29.48;;;9.80;99.90;;;;;;5048990;28;20049;-42
2023/02/21 11:46:43;;;;;;;60.58;31.27;;;9.90;99.90;;;;;;5049401;28;20567;-41
2023/02/21 11:49:31;;;;;;;52.03;28.13;;;9.90;99.90;;;;;;5049385;28;20036;-41
2023/02/21 11:52:07;;;;;;;51.58;27.85;;;10.10;99.90;;;;;;5047603;28;20024;-42
2023/02/21 11:54:32;;;;;;;49.13;26.17;;;10.20;99.90;;;;;;5049171;28;20017;-42
2023/02/21 11:57:20;;;;;;;48.45;26.83;;;10.40;99.90;;;;;;5049220;28;20353;-41
2023/02/21 12:00:14;;;;;;;51.22;27.80;;;10.40;99.90;;;;;;5048562;28;20024;-42
2023/02/21 12:03:15;;;;;;;52.67;25.75;;;10.40;99.90;;;;;;5047536;28;20132;-42
2023/02/21 12:05:48;;;;;;;48.55;24.55;;;10.50;99.90;;;;;;5049343;28;20070;-39
2023/02/21 12:08:35;;;;;;;43.42;25.13;;;10.50;99.90;;;;;;5048824;28;20052;-40
2023/02/21 12:11:30;;;;;;;45.83;24.98;;;10.60;99.90;;;;;;5049166;28;20025;-42
2023/02/21 12:14:25;;;;;;;43.88;24.02;;;10.60;99.90;;;;;;5047712;28;20021;-40
2023/02/21 12:17:08;;;;;;;43.35;24.08;;;10.70;99.90;;;;;;5048825;28;20017;-39
2023/02/21 12:19:52;;;;;;;41.83;22.45;;;10.60;99.90;;;;;;5047871;28;20021;-42
2023/02/21 12:22:47;;;;;;;44.40;24.60;;;10.70;99.90;;;;;;5046539;28;20029;-42
2023/02/21 12:25:20;;;;;;;40.35;23.38;;;10.60;99.90;;;;;;5032351;28;20107;-42
2023/02/21 12:28:02;;;;;;;39.92;22.10;;;10.60;99.90;;;;;;5049057;28;20021;-40
2023/02/21 12:30:36;;;;;;;40.20;23.08;;;10.60;99.90;;;;;;5048442;28;20040;-41
2023/02/21 12:33:29;;;;;;;39.00;21.08;;;10.60;99.90;;;;;;5048231;28;20025;-41
2023/02/21 12:36:14;;;;;;;37.55;21.25;;;10.60;99.90;;;;;;5048609;28;20503;-41
2023/02/21 12:38:48;;;;;;;38.85;21.38;;;10.60;99.90;;;;;;5048759;28;20108;-41
2023/02/21 12:41:30;;;;;;;39.88;21.45;;;10.70;99.90;;;;;;5048640;28;20025;-41
2023/02/21 12:44:00;;;;;;;35.42;21.48;;;10.70;99.90;;;;;;5047015;28;20017;-40
2023/02/21 12:46:57;;;;;;;40.47;21.48;;;10.70;99.90;;;;;;5048270;28;20391;-41
2023/02/21 12:49:26;;;;;;;29.50;18.48;;;10.80;99.90;;;;;;5064081;28;20028;-41
2023/02/21 12:52:05;;;;;;;33.17;20.55;;;10.90;99.90;;;;;;5048294;28;20034;-41
2023/02/21 12:54:57;;;;;;;38.50;20.13;;;10.90;99.90;;;;;;5047204;28;20047;-41
2023/02/21 12:57:27;;;;;;;34.13;20.58;;;11.00;99.90;;;;;;5048430;28;20021;-40
2023/02/21 13:00:06;;;;;;;41.95;21.60;;;11.10;99.90;;;;;;5048315;28;20082;-41
2023/02/21 13:02:56;;;;;;;37.35;21.42;;;11.30;99.90;;;;;;5047857;28;20082;-42
2023/02/21 13:05:47;;;;;;;39.42;21.33;;;11.40;99.90;;;;;;5048163;28;20025;-42
2023/02/21 13:08:19;;;;;;;;;;;11.50;99.90;;;;;;5042937;28;20033;-41
2023/02/21 13:11:00;;;;;;;37.67;20.63;;;11.70;99.90;;;;;;5047752;28;19909;-40
2023/02/21 13:13:31;;;;;;;31.70;19.63;;;11.80;99.90;;;;;;5047776;28;20017;-41
2023/02/21 13:15:59;;;;;;;33.58;20.70;;;11.70;99.90;;;;;;5048001;28;20017;-40
2023/02/21 13:18:36;;;;;;;33.65;20.48;;;11.70;99.90;;;;;;5048061;28;20033;-42
2023/02/21 13:21:32;;;;;;;35.38;21.52;;;11.60;99.90;;;;;;5047952;28;20029;-40
2023/02/21 13:24:02;;;;;;;36.50;20.65;;;11.50;99.90;;;;;;5062051;28;20484;-41
2023/02/21 13:26:43;;;;;;;34.95;20.40;;;11.40;99.90;;;;;;5048561;28;20044;-46
2023/02/21 13:29:44;;;;;;;35.90;22.17;;;11.40;99.90;;;;;;5047837;28;20336;-47
2023/02/21 13:32:15;;;;;;;35.33;21.50;;;11.30;99.90;;;;;;5005064;28;20165;-47
2023/02/21 13:34:45;;;;;;;35.08;21.48;;;11.40;99.90;;;;;;5040980;28;20447;-47
2023/02/21 13:37:18;;;;;;;35.63;21.70;;;11.40;99.90;;;;;;5064086;28;20021;-47
2023/02/21 13:39:50;;;;;;;32.63;19.92;;;11.40;99.90;;;;;;5051955;28;20608;-48
2023/02/21 13:42:18;;;;;;;35.47;19.42;;;11.40;99.90;;;;;;5050064;28;20033;-46
2023/02/21 13:44:52;;;;;;;33.10;19.83;;;11.50;99.90;;;;;;5051608;28;20104;-46
2023/02/21 13:47:22;;;;;;;31.75;20.13;;;11.40;99.90;;;;;;5065510;28;20155;-46
2023/02/21 13:49:58;;;;;;;34.85;20.95;;;11.50;99.90;;;;;;5051181;28;20061;-47
2023/02/21 13:52:50;;;;;;;36.35;19.88;;;11.50;99.90;;;;;;5066309;28;20521;-47
2023/02/21 13:55:20;;;;;;;32.95;18.95;;;11.50;99.90;;;;;;5051373;28;20380;-47
2023/02/21 13:57:56;;;;;;;29.88;19.00;;;11.50;99.90;;;;;;5051633;28;20155;-48
2023/02/21 14:00:24;;;;;;;29.40;18.05;;;11.60;99.90;;;;;;5050072;28;20035;-47
2023/02/21 14:03:23;;;;;;;27.50;17.35;;;11.60;99.90;;;;;;5050313;28;20030;-46
2023/02/21 14:05:49;;;;;;;28.17;17.23;;;11.60;99.90;;;;;;5051074;28;20337;-47
2023/02/21 14:08:25;;;;;;;31.48;18.50;;;11.70;99.90;;;;;;5051207;28;20089;-48
2023/02/21 14:10:55;;;;;;;26.92;16.85;;;11.70;99.90;;;;;;5050978;28;20059;-46
2023/02/21 14:13:20;;;;;;;31.38;18.92;;;11.70;99.90;;;;;;5050598;28;20455;-46
2023/02/21 14:15:50;;;;;;;27.88;16.75;;;11.70;99.90;;;;;;5050715;28;20017;-46
2023/02/21 14:18:23;;;;;;;26.23;16.52;;;11.80;99.90;;;;;;5051186;28;20025;-47
2023/02/21 14:20:51;;;;;;;26.70;15.55;;;11.80;99.90;;;;;;5050846;28;20140;-47
2023/02/21 14:23:19;;;;;;;25.70;15.68;;;11.70;99.90;;;;;;5049291;28;20082;-47
2023/02/21 14:26:02;;;;;;;27.75;16.15;;;11.70;99.90;;;;;;5051087;28;20032;-46
2023/02/21 14:28:50;;;;;;;22.77;14.80;;;11.70;99.90;;;;;;5051270;28;20048;-47
2023/02/21 14:31:50;;;;;;;24.75;14.90;;;11.80;99.90;;;;;;5050478;28;20029;-47
2023/02/21 14:34:24;;;;;;;23.15;14.13;;;11.80;99.90;;;;;;5049531;28;20074;-47
2023/02/21 14:36:52;;;;;;;25.75;14.65;;;11.80;99.90;;;;;;5051064;28;20033;-46
2023/02/21 14:39:18;;;;;;;26.35;15.57;;;11.80;99.90;;;;;;5051061;28;20305;-40
2023/02/21 14:42:05;;;;;;;23.52;14.75;;;11.70;99.90;;;;;;5050763;28;20024;-42
2023/02/21 14:44:54;;;;;;;21.08;13.85;;;11.70;99.90;;;;;;5049546;28;20043;-41
2023/02/21 14:47:57;;;;;;;23.95;15.25;;;11.70;99.90;;;;;;5050190;28;20049;-42
2023/02/21 14:50:42;;;;;;;23.42;14.43;;;11.60;99.90;;;;;;5050705;28;20527;-42
2023/02/21 14:53:45;;;;;;;24.70;15.82;;;11.60;99.90;;;;;;5050289;28;20020;-42
2023/02/21 14:56:38;;;;;;;24.85;15.02;;;11.60;99.90;;;;;;5050668;28;20259;-42
2023/02/21 14:59:41;;;;;;;24.20;15.48;;;11.60;99.90;;;;;;5050470;28;20021;-41
2023/02/21 15:02:38;;;;;;;21.65;14.02;;;11.60;99.90;;;;;;5049880;28;20488;-41
2023/02/21 15:05:27;;;;;;;23.60;15.85;;;11.70;99.90;;;;;;5056176;28;20027;-42
2023/02/21 15:08:15;;;;;;;25.33;15.98;;;11.60;99.90;;;;;;5044031;28;20588;-41
2023/02/21 15:10:43;;;;;;;24.83;14.88;;;11.60;99.90;;;;;;5049895;28;20238;-41
2023/02/21 15:13:28;;;;;;;24.20;15.07;;;11.70;99.90;;;;;;5049599;28;20031;-41